Terminal Aerodrome Forecast
Issued by NWS

Home | Current Version | Previous Version | Text Only | Print | Product List | Glossary On
Versions: 1 2 3 4 5 6 7 8 9 10 11 12 13 14 15 16 17 18 19 20 21 22 23
000
FTUS41 KALY 242326
TAFPSF
TAF
KPSF 242326Z 2500/2524 31003KT P6SM OVC100
     FM250800 11010G18KT 4SM -SNPL OVC015
     FM251100 11014G20KT 2SM -FZRAPL BR OVC008
     FM251500 12015G25KT 2SM -RA BR OVC008
     FM251900 13012G20KT 4SM -SHRA OVC015
     FM252300 10004KT P6SM OVC020=

USA.gov is the U.S. government's official web portal to all federal, state and local government web resources and services.